sensor_id;sensor_type;location;lat;lon;timestamp;P1;durP1;ratioP1;P2;durP2;ratioP2
9270;SDS011;4673;53.458;9.940;2023-03-01T00:01:06;2.50;;;2.50;;
9270;SDS011;4673;53.458;9.940;2023-03-01T00:03:33;1.60;;;1.60;;
9270;SDS011;4673;53.458;9.940;2023-03-01T00:05:59;1.70;;;1.70;;
9270;SDS011;4673;53.458;9.940;2023-03-01T00:08:25;2.37;;;2.37;;
9270;SDS011;4673;53.458;9.940;2023-03-01T00:11:08;1.60;;;1.60;;
9270;SDS011;4673;53.458;9.940;2023-03-01T00:13:46;2.10;;;2.10;;
9270;SDS011;4673;53.458;9.940;2023-03-01T00:16:17;2.00;;;2.00;;
9270;SDS011;4673;53.458;9.940;2023-03-01T00:18:47;1.50;;;1.50;;
9270;SDS011;4673;53.458;9.940;2023-03-01T00:21:13;1.50;;;1.50;;
9270;SDS011;4673;53.458;9.940;2023-03-01T00:23:39;2.23;;;2.23;;
9270;SDS011;4673;53.458;9.940;2023-03-01T00:26:06;1.90;;;1.90;;
9270;SDS011;4673;53.458;9.940;2023-03-01T00:28:33;1.50;;;1.50;;
9270;SDS011;4673;53.458;9.940;2023-03-01T00:31:06;1.63;;;1.63;;
9270;SDS011;4673;53.458;9.940;2023-03-01T00:33:36;1.53;;;1.53;;
9270;SDS011;4673;53.458;9.940;2023-03-01T00:36:02;2.37;;;2.37;;
9270;SDS011;4673;53.458;9.940;2023-03-01T00:38:29;1.73;;;1.73;;
9270;SDS011;4673;53.458;9.940;2023-03-01T00:40:54;1.57;;;1.57;;
9270;SDS011;4673;53.458;9.940;2023-03-01T00:43:20;1.50;;;1.50;;
9270;SDS011;4673;53.458;9.940;2023-03-01T00:45:46;1.50;;;1.50;;
9270;SDS011;4673;53.458;9.940;2023-03-01T00:48:12;1.50;;;1.50;;
9270;SDS011;4673;53.458;9.940;2023-03-01T00:50:37;1.40;;;1.40;;
9270;SDS011;4673;53.458;9.940;2023-03-01T00:53:03;1.93;;;1.93;;
9270;SDS011;4673;53.458;9.940;2023-03-01T00:55:30;1.63;;;1.63;;
9270;SDS011;4673;53.458;9.940;2023-03-01T00:57:56;1.53;;;1.53;;
9270;SDS011;4673;53.458;9.940;2023-03-01T01:00:21;1.97;;;1.97;;
9270;SDS011;4673;53.458;9.940;2023-03-01T01:02:47;1.80;;;1.80;;
9270;SDS011;4673;53.458;9.940;2023-03-01T01:05:13;1.93;;;1.93;;
9270;SDS011;4673;53.458;9.940;2023-03-01T01:07:39;1.47;;;1.47;;
9270;SDS011;4673;53.458;9.940;2023-03-01T01:10:05;1.63;;;1.63;;
9270;SDS011;4673;53.458;9.940;2023-03-01T01:12:31;1.73;;;1.73;;
9270;SDS011;4673;53.458;9.940;2023-03-01T01:14:57;1.80;;;1.80;;
9270;SDS011;4673;53.458;9.940;2023-03-01T01:17:23;1.93;;;1.93;;
9270;SDS011;4673;53.458;9.940;2023-03-01T01:19:49;2.00;;;2.00;;
9270;SDS011;4673;53.458;9.940;2023-03-01T01:22:14;1.47;;;1.47;;
9270;SDS011;4673;53.458;9.940;2023-03-01T01:24:40;1.70;;;1.70;;
9270;SDS011;4673;53.458;9.940;2023-03-01T01:27:06;1.70;;;1.70;;
9270;SDS011;4673;53.458;9.940;2023-03-01T01:29:32;1.70;;;1.70;;
9270;SDS011;4673;53.458;9.940;2023-03-01T01:31:57;1.63;;;1.63;;
9270;SDS011;4673;53.458;9.940;2023-03-01T01:34:23;1.70;;;1.70;;
9270;SDS011;4673;53.458;9.940;2023-03-01T01:36:51;1.30;;;1.30;;
9270;SDS011;4673;53.458;9.940;2023-03-01T01:39:20;1.37;;;1.37;;
9270;SDS011;4673;53.458;9.940;2023-03-01T01:41:47;1.20;;;1.20;;
9270;SDS011;4673;53.458;9.940;2023-03-01T01:52:21;1.47;;;1.47;;
9270;SDS011;4673;53.458;9.940;2023-03-01T01:54:52;1.57;;;1.57;;
9270;SDS011;4673;53.458;9.940;2023-03-01T01:57:26;1.50;;;1.50;;
9270;SDS011;4673;53.458;9.940;2023-03-01T01:59:58;1.50;;;1.50;;
9270;SDS011;4673;53.458;9.940;2023-03-01T02:02:27;1.50;;;1.50;;
9270;SDS011;4673;53.458;9.940;2023-03-01T02:04:55;1.50;;;1.50;;
9270;SDS011;4673;53.458;9.940;2023-03-01T02:07:35;1.43;;;1.43;;
9270;SDS011;4673;53.458;9.940;2023-03-01T02:10:04;1.50;;;1.50;;
9270;SDS011;4673;53.458;9.940;2023-03-01T02:12:30;1.93;;;1.93;;
9270;SDS011;4673;53.458;9.940;2023-03-01T02:14:57;1.47;;;1.47;;
9270;SDS011;4673;53.458;9.940;2023-03-01T02:17:22;2.07;;;2.07;;
9270;SDS011;4673;53.458;9.940;2023-03-01T02:22:44;1.47;;;1.47;;
9270;SDS011;4673;53.458;9.940;2023-03-01T02:27:54;1.67;;;1.67;;
9270;SDS011;4673;53.458;9.940;2023-03-01T02:30:43;1.40;;;1.40;;
9270;SDS011;4673;53.458;9.940;2023-03-01T02:33:31;1.43;;;1.43;;
9270;SDS011;4673;53.458;9.940;2023-03-01T02:36:01;1.50;;;1.50;;
9270;SDS011;4673;53.458;9.940;2023-03-01T02:38:31;1.60;;;1.60;;
9270;SDS011;4673;53.458;9.940;2023-03-01T02:40:57;1.50;;;1.50;;
9270;SDS011;4673;53.458;9.940;2023-03-01T02:43:25;1.87;;;1.87;;
9270;SDS011;4673;53.458;9.940;2023-03-01T02:45:57;1.80;;;1.80;;
9270;SDS011;4673;53.458;9.940;2023-03-01T02:48:24;1.60;;;1.60;;
9270;SDS011;4673;53.458;9.940;2023-03-01T02:53:38;1.70;;;1.70;;
9270;SDS011;4673;53.458;9.940;2023-03-01T02:56:11;1.50;;;1.50;;
9270;SDS011;4673;53.458;9.940;2023-03-01T02:58:39;1.50;;;1.50;;
9270;SDS011;4673;53.458;9.940;2023-03-01T03:01:11;1.67;;;1.67;;
9270;SDS011;4673;53.458;9.940;2023-03-01T03:03:38;2.03;;;2.03;;
9270;SDS011;4673;53.458;9.940;2023-03-01T03:06:04;2.03;;;2.03;;
9270;SDS011;4673;53.458;9.940;2023-03-01T03:08:30;1.67;;;1.67;;
9270;SDS011;4673;53.458;9.940;2023-03-01T03:10:55;1.40;;;1.40;;
9270;SDS011;4673;53.458;9.940;2023-03-01T03:13:21;1.47;;;1.47;;
9270;SDS011;4673;53.458;9.940;2023-03-01T03:15:47;1.50;;;1.50;;
9270;SDS011;4673;53.458;9.940;2023-03-01T03:18:14;1.70;;;1.70;;
9270;SDS011;4673;53.458;9.940;2023-03-01T03:20:41;1.20;;;1.20;;
9270;SDS011;4673;53.458;9.940;2023-03-01T03:23:08;1.50;;;1.50;;
9270;SDS011;4673;53.458;9.940;2023-03-01T03:25:34;1.50;;;1.50;;
9270;SDS011;4673;53.458;9.940;2023-03-01T03:28:03;1.50;;;1.50;;
9270;SDS011;4673;53.458;9.940;2023-03-01T03:30:34;1.53;;;1.53;;
9270;SDS011;4673;53.458;9.940;2023-03-01T03:33:04;1.20;;;1.20;;
9270;SDS011;4673;53.458;9.940;2023-03-01T03:35:34;1.80;;;1.80;;
9270;SDS011;4673;53.458;9.940;2023-03-01T03:38:05;1.70;;;1.70;;
9270;SDS011;4673;53.458;9.940;2023-03-01T03:43:06;1.67;;;1.67;;
9270;SDS011;4673;53.458;9.940;2023-03-01T03:45:33;1.43;;;1.43;;
9270;SDS011;4673;53.458;9.940;2023-03-01T03:48:00;2.20;;;2.20;;
9270;SDS011;4673;53.458;9.940;2023-03-01T03:50:27;1.90;;;1.90;;
9270;SDS011;4673;53.458;9.940;2023-03-01T03:52:52;1.30;;;1.30;;
9270;SDS011;4673;53.458;9.940;2023-03-01T03:55:18;1.50;;;1.50;;
9270;SDS011;4673;53.458;9.940;2023-03-01T03:57:45;1.90;;;1.90;;
9270;SDS011;4673;53.458;9.940;2023-03-01T04:00:20;1.80;;;1.80;;
9270;SDS011;4673;53.458;9.940;2023-03-01T04:02:48;1.63;;;1.63;;
9270;SDS011;4673;53.458;9.940;2023-03-01T04:05:16;1.40;;;1.40;;
9270;SDS011;4673;53.458;9.940;2023-03-01T04:07:43;1.63;;;1.63;;
9270;SDS011;4673;53.458;9.940;2023-03-01T04:10:10;1.40;;;1.40;;
9270;SDS011;4673;53.458;9.940;2023-03-01T04:12:39;1.83;;;1.83;;
9270;SDS011;4673;53.458;9.940;2023-03-01T04:15:05;1.87;;;1.87;;
9270;SDS011;4673;53.458;9.940;2023-03-01T04:17:41;1.47;;;1.47;;
9270;SDS011;4673;53.458;9.940;2023-03-01T04:20:14;1.90;;;1.90;;
9270;SDS011;4673;53.458;9.940;2023-03-01T04:22:42;1.73;;;1.73;;
9270;SDS011;4673;53.458;9.940;2023-03-01T04:25:12;1.67;;;1.67;;
9270;SDS011;4673;53.458;9.940;2023-03-01T04:27:39;1.83;;;1.83;;
9270;SDS011;4673;53.458;9.940;2023-03-01T04:30:06;2.17;;;2.17;;
9270;SDS011;4673;53.458;9.940;2023-03-01T04:32:34;1.90;;;1.90;;
9270;SDS011;4673;53.458;9.940;2023-03-01T04:35:00;1.67;;;1.67;;
9270;SDS011;4673;53.458;9.940;2023-03-01T04:37:25;2.00;;;2.00;;
9270;SDS011;4673;53.458;9.940;2023-03-01T04:39:52;2.10;;;2.10;;
9270;SDS011;4673;53.458;9.940;2023-03-01T04:42:18;1.90;;;1.90;;
9270;SDS011;4673;53.458;9.940;2023-03-01T04:44:44;1.63;;;1.63;;
9270;SDS011;4673;53.458;9.940;2023-03-01T04:47:10;1.80;;;1.80;;
9270;SDS011;4673;53.458;9.940;2023-03-01T04:49:36;2.10;;;2.10;;
9270;SDS011;4673;53.458;9.940;2023-03-01T04:52:02;2.50;;;2.50;;
9270;SDS011;4673;53.458;9.940;2023-03-01T04:54:29;2.03;;;2.03;;
9270;SDS011;4673;53.458;9.940;2023-03-01T04:56:56;3.43;;;3.43;;
9270;SDS011;4673;53.458;9.940;2023-03-01T04:59:21;2.17;;;2.17;;
9270;SDS011;4673;53.458;9.940;2023-03-01T05:01:48;2.30;;;2.30;;
9270;SDS011;4673;53.458;9.940;2023-03-01T05:04:14;2.93;;;2.93;;
9270;SDS011;4673;53.458;9.940;2023-03-01T05:06:39;2.20;;;2.20;;
9270;SDS011;4673;53.458;9.940;2023-03-01T05:09:05;2.00;;;2.00;;
9270;SDS011;4673;53.458;9.940;2023-03-01T05:11:36;2.73;;;2.73;;
9270;SDS011;4673;53.458;9.940;2023-03-01T05:14:02;2.80;;;2.80;;
9270;SDS011;4673;53.458;9.940;2023-03-01T05:16:28;2.70;;;2.70;;
9270;SDS011;4673;53.458;9.940;2023-03-01T05:18:55;3.03;;;2.93;;
9270;SDS011;4673;53.458;9.940;2023-03-01T05:21:21;2.93;;;2.93;;
9270;SDS011;4673;53.458;9.940;2023-03-01T05:23:47;2.47;;;2.47;;
9270;SDS011;4673;53.458;9.940;2023-03-01T05:26:13;2.70;;;2.70;;
9270;SDS011;4673;53.458;9.940;2023-03-01T05:28:40;3.00;;;3.00;;
9270;SDS011;4673;53.458;9.940;2023-03-01T05:31:06;2.60;;;2.60;;
9270;SDS011;4673;53.458;9.940;2023-03-01T05:33:35;2.80;;;2.80;;
9270;SDS011;4673;53.458;9.940;2023-03-01T05:36:08;3.30;;;3.30;;
9270;SDS011;4673;53.458;9.940;2023-03-01T05:38:34;3.40;;;3.40;;
9270;SDS011;4673;53.458;9.940;2023-03-01T05:41:00;2.77;;;2.77;;
9270;SDS011;4673;53.458;9.940;2023-03-01T05:43:29;2.27;;;2.27;;
9270;SDS011;4673;53.458;9.940;2023-03-01T05:45:58;2.83;;;2.83;;
9270;SDS011;4673;53.458;9.940;2023-03-01T05:48:24;2.90;;;2.90;;
9270;SDS011;4673;53.458;9.940;2023-03-01T05:50:51;2.40;;;2.40;;
9270;SDS011;4673;53.458;9.940;2023-03-01T05:53:17;3.00;;;3.00;;
9270;SDS011;4673;53.458;9.940;2023-03-01T05:55:46;3.00;;;3.00;;
9270;SDS011;4673;53.458;9.940;2023-03-01T05:58:16;2.40;;;2.40;;
9270;SDS011;4673;53.458;9.940;2023-03-01T06:00:43;2.77;;;2.77;;
9270;SDS011;4673;53.458;9.940;2023-03-01T06:03:13;2.70;;;2.70;;
9270;SDS011;4673;53.458;9.940;2023-03-01T06:05:40;2.30;;;2.30;;
9270;SDS011;4673;53.458;9.940;2023-03-01T06:08:06;3.53;;;3.53;;
9270;SDS011;4673;53.458;9.940;2023-03-01T06:10:32;3.07;;;3.07;;
9270;SDS011;4673;53.458;9.940;2023-03-01T06:12:58;2.80;;;2.80;;
9270;SDS011;4673;53.458;9.940;2023-03-01T06:15:24;2.83;;;2.83;;
9270;SDS011;4673;53.458;9.940;2023-03-01T06:17:50;2.53;;;2.53;;
9270;SDS011;4673;53.458;9.940;2023-03-01T06:20:17;2.83;;;2.83;;
9270;SDS011;4673;53.458;9.940;2023-03-01T06:22:45;2.80;;;2.80;;
9270;SDS011;4673;53.458;9.940;2023-03-01T06:25:13;2.50;;;2.50;;
9270;SDS011;4673;53.458;9.940;2023-03-01T06:27:40;3.00;;;3.00;;
9270;SDS011;4673;53.458;9.940;2023-03-01T06:30:07;2.97;;;2.97;;
9270;SDS011;4673;53.458;9.940;2023-03-01T06:32:34;2.93;;;2.93;;
9270;SDS011;4673;53.458;9.940;2023-03-01T06:35:00;2.97;;;2.97;;
9270;SDS011;4673;53.458;9.940;2023-03-01T06:37:26;2.93;;;2.93;;
9270;SDS011;4673;53.458;9.940;2023-03-01T06:39:51;3.47;;;3.47;;
9270;SDS011;4673;53.458;9.940;2023-03-01T06:42:17;3.30;;;3.30;;
9270;SDS011;4673;53.458;9.940;2023-03-01T06:44:43;2.90;;;2.90;;
9270;SDS011;4673;53.458;9.940;2023-03-01T06:47:09;2.60;;;2.60;;
9270;SDS011;4673;53.458;9.940;2023-03-01T06:49:35;2.93;;;2.93;;
9270;SDS011;4673;53.458;9.940;2023-03-01T06:52:00;3.03;;;3.03;;
9270;SDS011;4673;53.458;9.940;2023-03-01T06:54:26;2.63;;;2.63;;
9270;SDS011;4673;53.458;9.940;2023-03-01T06:56:51;2.70;;;2.70;;
9270;SDS011;4673;53.458;9.940;2023-03-01T06:59:17;2.47;;;2.47;;
9270;SDS011;4673;53.458;9.940;2023-03-01T07:01:43;2.50;;;2.50;;
9270;SDS011;4673;53.458;9.940;2023-03-01T07:04:09;2.70;;;2.70;;
9270;SDS011;4673;53.458;9.940;2023-03-01T07:06:35;2.93;;;2.93;;
9270;SDS011;4673;53.458;9.940;2023-03-01T07:09:01;2.77;;;2.77;;
9270;SDS011;4673;53.458;9.940;2023-03-01T07:11:28;2.37;;;2.37;;
9270;SDS011;4673;53.458;9.940;2023-03-01T07:13:54;2.50;;;2.50;;
9270;SDS011;4673;53.458;9.940;2023-03-01T07:16:20;2.20;;;2.20;;
9270;SDS011;4673;53.458;9.940;2023-03-01T07:18:46;2.77;;;2.77;;
9270;SDS011;4673;53.458;9.940;2023-03-01T07:21:13;2.67;;;2.67;;
9270;SDS011;4673;53.458;9.940;2023-03-01T07:23:40;2.57;;;2.57;;
9270;SDS011;4673;53.458;9.940;2023-03-01T07:26:06;2.70;;;2.70;;
9270;SDS011;4673;53.458;9.940;2023-03-01T07:28:32;2.63;;;2.63;;
9270;SDS011;4673;53.458;9.940;2023-03-01T07:31:03;2.47;;;2.47;;
9270;SDS011;4673;53.458;9.940;2023-03-01T07:33:29;2.50;;;2.50;;
9270;SDS011;4673;53.458;9.940;2023-03-01T07:35:58;2.50;;;2.50;;
9270;SDS011;4673;53.458;9.940;2023-03-01T07:38:25;2.47;;;2.47;;
9270;SDS011;4673;53.458;9.940;2023-03-01T07:40:52;2.73;;;2.73;;
9270;SDS011;4673;53.458;9.940;2023-03-01T07:43:18;2.60;;;2.60;;
9270;SDS011;4673;53.458;9.940;2023-03-01T07:45:45;2.63;;;2.63;;
9270;SDS011;4673;53.458;9.940;2023-03-01T07:48:11;2.47;;;2.47;;
9270;SDS011;4673;53.458;9.940;2023-03-01T07:50:36;2.90;;;2.90;;
9270;SDS011;4673;53.458;9.940;2023-03-01T07:53:02;2.83;;;2.83;;
9270;SDS011;4673;53.458;9.940;2023-03-01T07:55:28;2.50;;;2.50;;
9270;SDS011;4673;53.458;9.940;2023-03-01T07:57:53;3.00;;;3.00;;
9270;SDS011;4673;53.458;9.940;2023-03-01T08:00:19;2.73;;;2.73;;
9270;SDS011;4673;53.458;9.940;2023-03-01T08:02:45;3.03;;;3.03;;
9270;SDS011;4673;53.458;9.940;2023-03-01T08:05:11;3.07;;;3.07;;
9270;SDS011;4673;53.458;9.940;2023-03-01T08:07:37;3.00;;;3.00;;
9270;SDS011;4673;53.458;9.940;2023-03-01T08:10:03;2.77;;;2.77;;
9270;SDS011;4673;53.458;9.940;2023-03-01T08:12:29;3.07;;;3.07;;
9270;SDS011;4673;53.458;9.940;2023-03-01T08:14:54;3.47;;;3.47;;
9270;SDS011;4673;53.458;9.940;2023-03-01T08:17:21;3.77;;;3.77;;
9270;SDS011;4673;53.458;9.940;2023-03-01T08:19:47;3.53;;;3.53;;
9270;SDS011;4673;53.458;9.940;2023-03-01T08:22:13;3.13;;;3.13;;
9270;SDS011;4673;53.458;9.940;2023-03-01T08:24:38;3.73;;;3.73;;
9270;SDS011;4673;53.458;9.940;2023-03-01T08:27:04;3.83;;;3.83;;
9270;SDS011;4673;53.458;9.940;2023-03-01T08:29:31;3.57;;;3.57;;
9270;SDS011;4673;53.458;9.940;2023-03-01T08:31:57;4.47;;;4.47;;
9270;SDS011;4673;53.458;9.940;2023-03-01T08:34:22;3.70;;;3.70;;
9270;SDS011;4673;53.458;9.940;2023-03-01T08:36:48;4.60;;;4.60;;
9270;SDS011;4673;53.458;9.940;2023-03-01T08:39:15;4.10;;;4.10;;
9270;SDS011;4673;53.458;9.940;2023-03-01T08:41:43;4.60;;;4.60;;
9270;SDS011;4673;53.458;9.940;2023-03-01T08:44:09;4.40;;;4.40;;
9270;SDS011;4673;53.458;9.940;2023-03-01T08:46:37;4.63;;;4.63;;
9270;SDS011;4673;53.458;9.940;2023-03-01T08:49:14;4.67;;;4.67;;
9270;SDS011;4673;53.458;9.940;2023-03-01T08:51:44;4.20;;;4.20;;
9270;SDS011;4673;53.458;9.940;2023-03-01T08:54:12;4.43;;;4.43;;
9270;SDS011;4673;53.458;9.940;2023-03-01T08:56:43;4.37;;;4.37;;
9270;SDS011;4673;53.458;9.940;2023-03-01T08:59:09;4.60;;;4.60;;
9270;SDS011;4673;53.458;9.940;2023-03-01T09:01:38;4.67;;;4.67;;
9270;SDS011;4673;53.458;9.940;2023-03-01T09:04:05;4.90;;;4.90;;
9270;SDS011;4673;53.458;9.940;2023-03-01T09:06:31;5.03;;;5.03;;
9270;SDS011;4673;53.458;9.940;2023-03-01T09:08:58;4.90;;;4.90;;
9270;SDS011;4673;53.458;9.940;2023-03-01T09:11:24;5.20;;;5.20;;
9270;SDS011;4673;53.458;9.940;2023-03-01T09:13:50;5.73;;;5.73;;
9270;SDS011;4673;53.458;9.940;2023-03-01T09:16:17;5.60;;;5.60;;
9270;SDS011;4673;53.458;9.940;2023-03-01T09:18:44;6.07;;;6.07;;
9270;SDS011;4673;53.458;9.940;2023-03-01T09:21:14;7.33;;;7.33;;
9270;SDS011;4673;53.458;9.940;2023-03-01T09:23:41;7.47;;;7.47;;
9270;SDS011;4673;53.458;9.940;2023-03-01T09:26:13;7.17;;;7.17;;
9270;SDS011;4673;53.458;9.940;2023-03-01T09:28:44;8.00;;;8.00;;
9270;SDS011;4673;53.458;9.940;2023-03-01T09:31:11;7.17;;;7.17;;
9270;SDS011;4673;53.458;9.940;2023-03-01T09:33:38;6.90;;;6.90;;
9270;SDS011;4673;53.458;9.940;2023-03-01T09:36:06;7.03;;;7.03;;
9270;SDS011;4673;53.458;9.940;2023-03-01T09:38:37;6.73;;;6.73;;
9270;SDS011;4673;53.458;9.940;2023-03-01T09:41:08;6.20;;;6.20;;
9270;SDS011;4673;53.458;9.940;2023-03-01T09:43:51;6.87;;;6.87;;
9270;SDS011;4673;53.458;9.940;2023-03-01T09:46:23;5.93;;;5.93;;
9270;SDS011;4673;53.458;9.940;2023-03-01T09:48:52;6.27;;;6.27;;
9270;SDS011;4673;53.458;9.940;2023-03-01T09:51:23;5.73;;;5.73;;
9270;SDS011;4673;53.458;9.940;2023-03-01T09:53:54;6.23;;;6.23;;
9270;SDS011;4673;53.458;9.940;2023-03-01T09:56:24;5.87;;;5.87;;
9270;SDS011;4673;53.458;9.940;2023-03-01T10:04:52;5.77;;;5.77;;
9270;SDS011;4673;53.458;9.940;2023-03-01T10:10:27;7.10;;;7.10;;
9270;SDS011;4673;53.458;9.940;2023-03-01T10:12:58;7.00;;;7.00;;
9270;SDS011;4673;53.458;9.940;2023-03-01T10:15:38;6.47;;;6.47;;
9270;SDS011;4673;53.458;9.940;2023-03-01T10:18:18;7.07;;;7.07;;
9270;SDS011;4673;53.458;9.940;2023-03-01T10:20:52;7.90;;;7.90;;
9270;SDS011;4673;53.458;9.940;2023-03-01T10:23:24;7.63;;;7.63;;
9270;SDS011;4673;53.458;9.940;2023-03-01T10:31:12;8.00;;;8.00;;
9270;SDS011;4673;53.458;9.940;2023-03-01T10:33:43;7.87;;;7.87;;
9270;SDS011;4673;53.458;9.940;2023-03-01T10:36:09;8.90;;;8.83;;
9270;SDS011;4673;53.458;9.940;2023-03-01T10:38:48;7.50;;;7.50;;
9270;SDS011;4673;53.458;9.940;2023-03-01T10:41:19;7.77;;;7.77;;
9270;SDS011;4673;53.458;9.940;2023-03-01T10:43:53;7.93;;;7.93;;
9270;SDS011;4673;53.458;9.940;2023-03-01T10:46:37;8.43;;;8.43;;
9270;SDS011;4673;53.458;9.940;2023-03-01T10:49:13;8.23;;;8.23;;
9270;SDS011;4673;53.458;9.940;2023-03-01T10:51:40;8.47;;;8.47;;
9270;SDS011;4673;53.458;9.940;2023-03-01T10:54:15;9.43;;;9.43;;
9270;SDS011;4673;53.458;9.940;2023-03-01T10:56:54;9.00;;;9.00;;
9270;SDS011;4673;53.458;9.940;2023-03-01T10:59:34;8.50;;;8.50;;
9270;SDS011;4673;53.458;9.940;2023-03-01T11:02:03;8.37;;;8.37;;
9270;SDS011;4673;53.458;9.940;2023-03-01T11:04:38;8.93;;;8.93;;
9270;SDS011;4673;53.458;9.940;2023-03-01T11:07:04;9.27;;;9.23;;
9270;SDS011;4673;53.458;9.940;2023-03-01T11:09:33;9.00;;;9.00;;
9270;SDS011;4673;53.458;9.940;2023-03-01T11:12:05;8.90;;;8.90;;
9270;SDS011;4673;53.458;9.940;2023-03-01T11:14:45;8.80;;;8.80;;
9270;SDS011;4673;53.458;9.940;2023-03-01T11:17:18;9.73;;;9.73;;
9270;SDS011;4673;53.458;9.940;2023-03-01T11:20:13;9.07;;;9.07;;
9270;SDS011;4673;53.458;9.940;2023-03-01T11:23:18;9.10;;;9.10;;
9270;SDS011;4673;53.458;9.940;2023-03-01T11:25:54;9.70;;;9.70;;
9270;SDS011;4673;53.458;9.940;2023-03-01T11:28:24;10.20;;;10.10;;
9270;SDS011;4673;53.458;9.940;2023-03-01T11:31:14;10.73;;;10.73;;
9270;SDS011;4673;53.458;9.940;2023-03-01T11:33:56;9.67;;;9.67;;
9270;SDS011;4673;53.458;9.940;2023-03-01T11:39:02;10.13;;;10.13;;
9270;SDS011;4673;53.458;9.940;2023-03-01T11:41:35;9.70;;;9.70;;
9270;SDS011;4673;53.458;9.940;2023-03-01T11:44:26;11.17;;;11.07;;
9270;SDS011;4673;53.458;9.940;2023-03-01T11:57:17;8.07;;;8.07;;
9270;SDS011;4673;53.458;9.940;2023-03-01T12:00:13;7.13;;;7.07;;
9270;SDS011;4673;53.458;9.940;2023-03-01T12:08:46;7.47;;;7.47;;
9270;SDS011;4673;53.458;9.940;2023-03-01T12:11:28;7.17;;;7.17;;
9270;SDS011;4673;53.458;9.940;2023-03-01T12:16:58;7.80;;;7.80;;
9270;SDS011;4673;53.458;9.940;2023-03-01T12:25:34;7.20;;;7.20;;
9270;SDS011;4673;53.458;9.940;2023-03-01T12:33:37;7.30;;;7.30;;
9270;SDS011;4673;53.458;9.940;2023-03-01T12:47:54;6.07;;;6.07;;
9270;SDS011;4673;53.458;9.940;2023-03-01T12:50:23;6.53;;;6.53;;
9270;SDS011;4673;53.458;9.940;2023-03-01T12:52:55;5.97;;;5.97;;
9270;SDS011;4673;53.458;9.940;2023-03-01T12:55:40;7.07;;;7.07;;
9270;SDS011;4673;53.458;9.940;2023-03-01T13:01:14;6.67;;;6.67;;
9270;SDS011;4673;53.458;9.940;2023-03-01T13:12:01;6.77;;;6.77;;
9270;SDS011;4673;53.458;9.940;2023-03-01T13:16:55;7.30;;;7.23;;
9270;SDS011;4673;53.458;9.940;2023-03-01T13:19:22;7.27;;;7.27;;
9270;SDS011;4673;53.458;9.940;2023-03-01T13:21:50;6.63;;;6.63;;
9270;SDS011;4673;53.458;9.940;2023-03-01T13:24:52;6.87;;;6.87;;
9270;SDS011;4673;53.458;9.940;2023-03-01T13:27:11;6.53;;;6.53;;
9270;SDS011;4673;53.458;9.940;2023-03-01T13:29:54;6.37;;;6.37;;
9270;SDS011;4673;53.458;9.940;2023-03-01T13:32:22;7.53;;;7.50;;
9270;SDS011;4673;53.458;9.940;2023-03-01T13:37:41;6.43;;;6.43;;
9270;SDS011;4673;53.458;9.940;2023-03-01T13:42:53;6.17;;;6.17;;
9270;SDS011;4673;53.458;9.940;2023-03-01T13:48:11;5.60;;;5.60;;
9270;SDS011;4673;53.458;9.940;2023-03-01T13:50:47;6.00;;;6.00;;
9270;SDS011;4673;53.458;9.940;2023-03-01T13:53:20;6.43;;;6.43;;
9270;SDS011;4673;53.458;9.940;2023-03-01T13:55:56;5.77;;;5.77;;
9270;SDS011;4673;53.458;9.940;2023-03-01T13:58:43;5.80;;;5.80;;
9270;SDS011;4673;53.458;9.940;2023-03-01T14:03:46;6.50;;;6.50;;
9270;SDS011;4673;53.458;9.940;2023-03-01T14:06:13;7.07;;;7.07;;
9270;SDS011;4673;53.458;9.940;2023-03-01T14:08:44;7.17;;;7.17;;
9270;SDS011;4673;53.458;9.940;2023-03-01T14:19:15;5.80;;;5.80;;
9270;SDS011;4673;53.458;9.940;2023-03-01T14:21:45;6.13;;;6.13;;
9270;SDS011;4673;53.458;9.940;2023-03-01T14:24:16;6.67;;;6.67;;
9270;SDS011;4673;53.458;9.940;2023-03-01T14:26:43;5.53;;;5.53;;
9270;SDS011;4673;53.458;9.940;2023-03-01T14:29:33;6.07;;;6.07;;
9270;SDS011;4673;53.458;9.940;2023-03-01T14:32:11;5.43;;;5.43;;
9270;SDS011;4673;53.458;9.940;2023-03-01T14:34:46;5.30;;;5.30;;
9270;SDS011;4673;53.458;9.940;2023-03-01T14:37:18;5.33;;;5.33;;
9270;SDS011;4673;53.458;9.940;2023-03-01T14:39:53;5.50;;;5.50;;
9270;SDS011;4673;53.458;9.940;2023-03-01T14:42:20;5.53;;;5.53;;
9270;SDS011;4673;53.458;9.940;2023-03-01T14:44:49;5.83;;;5.83;;
9270;SDS011;4673;53.458;9.940;2023-03-01T14:47:23;5.17;;;5.17;;
9270;SDS011;4673;53.458;9.940;2023-03-01T14:50:19;6.40;;;6.40;;
9270;SDS011;4673;53.458;9.940;2023-03-01T14:52:44;6.27;;;6.27;;
9270;SDS011;4673;53.458;9.940;2023-03-01T14:55:20;6.00;;;6.00;;
9270;SDS011;4673;53.458;9.940;2023-03-01T14:57:48;5.67;;;5.67;;
9270;SDS011;4673;53.458;9.940;2023-03-01T15:00:20;5.40;;;5.40;;
9270;SDS011;4673;53.458;9.940;2023-03-01T15:02:51;5.57;;;5.57;;
9270;SDS011;4673;53.458;9.940;2023-03-01T15:05:26;6.30;;;6.30;;
9270;SDS011;4673;53.458;9.940;2023-03-01T15:07:55;7.17;;;7.17;;
9270;SDS011;4673;53.458;9.940;2023-03-01T15:10:30;6.30;;;6.30;;
9270;SDS011;4673;53.458;9.940;2023-03-01T15:13:43;7.07;;;7.07;;
9270;SDS011;4673;53.458;9.940;2023-03-01T15:15:47;5.77;;;5.77;;
9270;SDS011;4673;53.458;9.940;2023-03-01T15:18:18;7.37;;;7.37;;
9270;SDS011;4673;53.458;9.940;2023-03-01T15:20:51;5.53;;;5.53;;
9270;SDS011;4673;53.458;9.940;2023-03-01T15:23:19;6.47;;;6.47;;
9270;SDS011;4673;53.458;9.940;2023-03-01T15:25:48;6.20;;;6.20;;
9270;SDS011;4673;53.458;9.940;2023-03-01T15:28:28;6.60;;;6.60;;
9270;SDS011;4673;53.458;9.940;2023-03-01T15:31:01;5.07;;;5.07;;
9270;SDS011;4673;53.458;9.940;2023-03-01T15:33:46;6.20;;;6.20;;
9270;SDS011;4673;53.458;9.940;2023-03-01T15:38:57;5.43;;;5.43;;
9270;SDS011;4673;53.458;9.940;2023-03-01T15:41:46;5.00;;;5.00;;
9270;SDS011;4673;53.458;9.940;2023-03-01T15:46:51;4.50;;;4.50;;
9270;SDS011;4673;53.458;9.940;2023-03-01T15:52:04;4.60;;;4.60;;
9270;SDS011;4673;53.458;9.940;2023-03-01T15:54:34;4.27;;;4.27;;
9270;SDS011;4673;53.458;9.940;2023-03-01T15:57:00;5.63;;;5.63;;
9270;SDS011;4673;53.458;9.940;2023-03-01T15:59:26;5.13;;;5.13;;
9270;SDS011;4673;53.458;9.940;2023-03-01T16:01:51;4.80;;;4.80;;
9270;SDS011;4673;53.458;9.940;2023-03-01T16:04:17;4.63;;;4.63;;
9270;SDS011;4673;53.458;9.940;2023-03-01T16:06:48;5.20;;;5.20;;
9270;SDS011;4673;53.458;9.940;2023-03-01T16:09:23;4.27;;;4.27;;
9270;SDS011;4673;53.458;9.940;2023-03-01T16:11:50;4.63;;;4.63;;
9270;SDS011;4673;53.458;9.940;2023-03-01T16:14:17;4.77;;;4.77;;
9270;SDS011;4673;53.458;9.940;2023-03-01T16:16:44;5.27;;;5.27;;
9270;SDS011;4673;53.458;9.940;2023-03-01T16:19:10;4.70;;;4.70;;
9270;SDS011;4673;53.458;9.940;2023-03-01T16:21:37;4.50;;;4.50;;
9270;SDS011;4673;53.458;9.940;2023-03-01T16:24:03;6.53;;;6.53;;
9270;SDS011;4673;53.458;9.940;2023-03-01T16:26:29;6.70;;;6.70;;
9270;SDS011;4673;53.458;9.940;2023-03-01T16:28:55;6.30;;;6.30;;
9270;SDS011;4673;53.458;9.940;2023-03-01T16:31:21;8.33;;;8.33;;
9270;SDS011;4673;53.458;9.940;2023-03-01T16:33:48;7.67;;;7.67;;
9270;SDS011;4673;53.458;9.940;2023-03-01T16:36:18;8.60;;;8.53;;
9270;SDS011;4673;53.458;9.940;2023-03-01T16:38:45;8.03;;;8.03;;
9270;SDS011;4673;53.458;9.940;2023-03-01T16:41:12;8.77;;;8.77;;
9270;SDS011;4673;53.458;9.940;2023-03-01T16:43:39;8.40;;;8.40;;
9270;SDS011;4673;53.458;9.940;2023-03-01T16:46:27;8.60;;;8.60;;
9270;SDS011;4673;53.458;9.940;2023-03-01T16:48:53;8.10;;;8.10;;
9270;SDS011;4673;53.458;9.940;2023-03-01T16:51:19;8.93;;;8.93;;
9270;SDS011;4673;53.458;9.940;2023-03-01T16:53:46;7.97;;;7.97;;
9270;SDS011;4673;53.458;9.940;2023-03-01T16:56:13;9.23;;;9.23;;
9270;SDS011;4673;53.458;9.940;2023-03-01T16:58:39;8.23;;;8.23;;
9270;SDS011;4673;53.458;9.940;2023-03-01T17:01:09;8.97;;;8.97;;
9270;SDS011;4673;53.458;9.940;2023-03-01T17:03:37;8.67;;;8.67;;
9270;SDS011;4673;53.458;9.940;2023-03-01T17:06:04;8.93;;;8.93;;
9270;SDS011;4673;53.458;9.940;2023-03-01T17:08:31;8.53;;;8.53;;
9270;SDS011;4673;53.458;9.940;2023-03-01T17:11:04;8.00;;;8.00;;
9270;SDS011;4673;53.458;9.940;2023-03-01T17:13:31;9.43;;;9.43;;
9270;SDS011;4673;53.458;9.940;2023-03-01T17:15:57;9.37;;;9.27;;
9270;SDS011;4673;53.458;9.940;2023-03-01T17:18:23;9.83;;;9.77;;
9270;SDS011;4673;53.458;9.940;2023-03-01T17:20:49;10.03;;;10.03;;
9270;SDS011;4673;53.458;9.940;2023-03-01T17:23:14;9.47;;;9.47;;
9270;SDS011;4673;53.458;9.940;2023-03-01T17:25:43;10.67;;;10.57;;
9270;SDS011;4673;53.458;9.940;2023-03-01T17:28:10;10.30;;;10.30;;